createdAt,value
2019-04-27T00:00:23.230Z,97.33
2019-04-27T00:01:23.349Z,97.64
2019-04-27T00:02:26.565Z,97.74
2019-04-27T00:03:23.498Z,96.82
2019-04-27T00:04:23.604Z,96.97
2019-04-27T00:05:26.640Z,96.72
2019-04-27T00:06:24.163Z,96.72
2019-04-27T00:07:24.121Z,96.97
2019-04-27T00:08:24.014Z,97.69
2019-04-27T00:09:23.126Z,97.58
2019-04-27T00:10:25.276Z,97.17
2019-04-27T00:11:24.124Z,97.28
2019-04-27T00:12:26.387Z,97.23
2019-04-27T00:13:23.084Z,97.58
2019-04-27T00:14:23.975Z,97.07
2019-04-27T00:15:24.700Z,97.58
2019-04-27T00:16:24.049Z,97.58
2019-04-27T00:17:41.267Z,97.58
2019-04-27T00:18:24.041Z,97.58
2019-04-27T00:19:23.284Z,97.28
2019-04-27T00:20:23.966Z,97.38
2019-04-27T00:21:23.718Z,97.48
2019-04-27T00:22:23.121Z,97.58
2019-04-27T00:23:23.641Z,97.38
2019-04-27T00:24:23.536Z,97.58
2019-04-27T00:25:23.099Z,97.28
2019-04-27T00:26:23.355Z,97.17
2019-04-27T00:27:23.434Z,97.28
2019-04-27T00:28:23.097Z,97.38
2019-04-27T00:29:23.647Z,97.07
2019-04-27T00:30:23.479Z,97.48
2019-04-27T00:31:23.411Z,97.33
2019-04-27T00:32:23.151Z,97.54
2019-04-27T00:33:23.825Z,97.58
2019-04-27T00:34:23.639Z,97.79
2019-04-27T00:35:23.480Z,97.79
2019-04-27T00:36:23.300Z,97.79
2019-04-27T00:37:23.734Z,97.74
2019-04-27T00:38:23.313Z,97.48
2019-04-27T00:39:23.138Z,97.58
2019-04-27T00:40:23.558Z,97.58
2019-04-27T00:41:24.225Z,97.38
2019-04-27T00:42:23.191Z,97.38
2019-04-27T00:43:23.008Z,97.48
2019-04-27T00:44:23.727Z,97.48
2019-04-27T00:45:23.448Z,97.48
2019-04-27T00:46:22.917Z,97.58
2019-04-27T00:47:23.855Z,97.17
2019-04-27T00:48:23.365Z,97.38
2019-04-27T00:49:23.880Z,96.97
2019-04-27T00:50:23.489Z,96.87
2019-04-27T00:51:23.162Z,97.07
2019-04-27T00:52:24.025Z,97.38
2019-04-27T00:53:23.517Z,97.03
2019-04-27T00:54:23.804Z,96.87
2019-04-27T00:55:23.448Z,96.51
2019-04-27T00:56:23.573Z,97.28
2019-04-27T00:57:22.888Z,97.07
2019-04-27T00:58:23.071Z,96.97
2019-04-27T00:59:23.844Z,96.97
2019-04-27T01:00:23.533Z,97.17
2019-04-27T01:01:23.344Z,97.17
2019-04-27T01:02:23.222Z,96.56
2019-04-27T01:03:22.900Z,96.35
2019-04-27T01:04:23.734Z,96.25
2019-04-27T01:05:23.074Z,96.35
2019-04-27T01:06:23.402Z,96.45
2019-04-27T01:07:22.797Z,95.94
2019-04-27T01:08:22.934Z,96.15
2019-04-27T01:09:23.674Z,96.45
2019-04-27T01:10:23.325Z,95.84
2019-04-27T01:11:22.711Z,95.84
2019-04-27T01:12:23.722Z,96.45
2019-04-27T01:13:23.043Z,96.25
2019-04-27T01:14:23.055Z,96.04
2019-04-27T01:15:23.772Z,96.19
2019-04-27T01:16:24.207Z,95.89
2019-04-27T01:17:22.369Z,96.30
2019-04-27T01:18:22.341Z,95.98
2019-04-27T01:19:22.338Z,95.98
2019-04-27T01:20:22.328Z,96.19
2019-04-27T01:21:22.316Z,96.09
2019-04-27T01:22:22.359Z,97.37
2019-04-27T01:23:22.288Z,97.12
2019-04-27T01:24:22.280Z,96.85
2019-04-27T01:25:22.264Z,97.06
2019-04-27T01:26:22.261Z,97.16
2019-04-27T01:27:22.239Z,97.06
2019-04-27T01:28:22.274Z,97.88
2019-04-27T01:29:22.218Z,97.57
2019-04-27T01:30:22.208Z,97.47
2019-04-27T01:31:22.200Z,97.67
2019-04-27T01:32:22.183Z,97.78
2019-04-27T01:33:22.250Z,97.88
2019-04-27T01:34:22.176Z,97.99
2019-04-27T01:35:22.151Z,97.99
2019-04-27T01:36:22.141Z,97.88
2019-04-27T01:37:22.131Z,97.99
2019-04-27T01:38:22.128Z,97.99
2019-04-27T01:39:22.172Z,97.67
2019-04-27T01:40:22.096Z,98.03
2019-04-27T01:41:22.080Z,98.03
2019-04-27T01:42:22.072Z,97.72
2019-04-27T01:43:22.084Z,97.72
2019-04-27T01:44:22.053Z,98.33
2019-04-27T01:45:22.083Z,98.33
2019-04-27T01:46:22.027Z,98.54
2019-04-27T01:47:22.025Z,98.50
2019-04-27T01:48:25.254Z,97.88
2019-04-27T01:49:22.038Z,97.78
2019-04-27T01:50:22.009Z,98.08
2019-04-27T01:51:21.971Z,97.99
2019-04-27T01:52:21.965Z,98.08
2019-04-27T01:53:21.955Z,98.08
2019-04-27T01:54:22.012Z,97.67
2019-04-27T01:55:21.942Z,97.57
2019-04-27T01:56:21.944Z,97.57
2019-04-27T01:57:21.906Z,97.67
2019-04-27T01:58:21.900Z,97.47
2019-04-27T01:59:21.886Z,97.47
2019-04-27T02:00:21.937Z,97.37
2019-04-27T02:01:21.864Z,97.73
2019-04-27T02:02:21.856Z,97.67
2019-04-27T02:03:21.845Z,97.57
2019-04-27T02:04:21.828Z,97.57
2019-04-27T02:05:21.829Z,97.88
2019-04-27T02:06:21.870Z,97.88
2019-04-27T02:07:21.800Z,97.99
2019-04-27T02:08:21.782Z,97.88
2019-04-27T02:09:21.782Z,98.54
2019-04-27T02:10:21.775Z,98.03
2019-04-27T02:11:21.751Z,98.13
2019-04-27T02:12:21.806Z,98.75
2019-04-27T02:13:21.731Z,98.54
2019-04-27T02:14:21.718Z,98.70
2019-04-27T02:15:21.726Z,98.50
2019-04-27T02:16:21.699Z,98.60
2019-04-27T02:17:21.689Z,98.54
2019-04-27T02:18:34.318Z,98.70
2019-04-27T02:19:22.663Z,98.75
2019-04-27T02:20:21.651Z,97.99
2019-04-27T02:21:21.636Z,98.50
2019-04-27T02:22:21.648Z,97.88
2019-04-27T02:23:21.615Z,97.99
2019-04-27T02:24:21.670Z,97.99
2019-04-27T02:25:21.594Z,97.99
2019-04-27T02:26:21.671Z,97.57
2019-04-27T02:27:21.572Z,97.37
2019-04-27T02:28:21.562Z,97.78
2019-04-27T02:29:21.547Z,97.67
2019-04-27T02:30:21.608Z,96.95
2019-04-27T02:31:21.544Z,96.75
2019-04-27T02:32:21.518Z,97.06
2019-04-27T02:33:21.522Z,97.06
2019-04-27T02:34:21.494Z,97.16
2019-04-27T02:35:21.485Z,97.27
2019-04-27T02:36:21.532Z,97.16
2019-04-27T02:37:21.466Z,97.47
2019-04-27T02:38:21.446Z,97.00
2019-04-27T02:39:21.706Z,97.10
2019-04-27T02:40:21.428Z,97.20
2019-04-27T02:41:21.416Z,96.80
2019-04-27T02:42:21.469Z,97.10
2019-04-27T02:43:21.394Z,97.25
2019-04-27T02:44:21.382Z,97.87
2019-04-27T02:45:22.189Z,97.66
2019-04-27T02:46:21.361Z,97.97
2019-04-27T02:47:21.417Z,97.25
2019-04-27T02:48:21.339Z,98.12
2019-04-27T02:49:21.327Z,98.12
2019-04-27T02:50:21.316Z,98.12
2019-04-27T02:51:21.316Z,98.06
2019-04-27T02:52:21.309Z,97.55
2019-04-27T02:53:21.348Z,97.96
2019-04-27T02:54:21.274Z,99.19
2019-04-27T02:55:21.276Z,98.79
2019-04-27T02:56:21.250Z,99.14
2019-04-27T02:57:21.235Z,98.93
2019-04-27T02:58:21.657Z,99.24
2019-04-27T02:59:21.267Z,99.04
2019-04-27T03:00:21.274Z,98.67
2019-04-27T03:01:21.195Z,98.88
2019-04-27T03:02:21.182Z,98.88
2019-04-27T03:03:21.173Z,99.29
2019-04-27T03:04:21.166Z,99.23
2019-04-27T03:05:21.145Z,99.54
2019-04-27T03:06:21.183Z,99.99
2019-04-27T03:07:21.126Z,99.95
2019-04-27T03:08:21.119Z,99.99
2019-04-27T03:09:21.106Z,99.99
2019-04-27T03:10:21.090Z,99.99
2019-04-27T03:11:23.417Z,99.99
2019-04-27T03:12:21.071Z,99.99
2019-04-27T03:13:21.056Z,99.99
2019-04-27T03:14:32.670Z,99.99
2019-04-27T03:15:23.331Z,99.99
2019-04-27T03:16:21.106Z,99.99
2019-04-27T03:17:22.712Z,99.99
2019-04-27T03:18:21.000Z,99.99
2019-04-27T03:19:21.938Z,99.99
2019-04-27T03:20:20.978Z,99.99
2019-04-27T03:21:20.967Z,99.99
2019-04-27T03:22:21.040Z,99.99
2019-04-27T03:23:20.941Z,99.99
2019-04-27T03:24:22.993Z,99.99
2019-04-27T03:25:20.920Z,99.99
2019-04-27T03:26:20.907Z,99.99
2019-04-27T03:27:20.918Z,99.99
2019-04-27T03:28:20.935Z,99.99
2019-04-27T03:29:22.918Z,99.99
2019-04-27T03:30:22.931Z,99.99
2019-04-27T03:31:21.754Z,99.99
2019-04-27T03:32:22.542Z,99.99
2019-04-27T03:33:22.010Z,99.99
2019-04-27T03:34:22.390Z,99.99
2019-04-27T03:35:22.841Z,99.99
2019-04-27T03:36:21.671Z,99.99
2019-04-27T03:37:20.786Z,99.99
2019-04-27T03:38:20.771Z,99.99
2019-04-27T03:39:20.825Z,99.99
2019-04-27T03:40:20.746Z,99.99
2019-04-27T03:41:20.733Z,99.99
2019-04-27T03:42:20.906Z,99.99
2019-04-27T03:43:20.719Z,99.99
2019-04-27T03:44:20.702Z,99.99
2019-04-27T03:45:33.537Z,99.99
2019-04-27T03:46:20.736Z,99.99
2019-04-27T03:47:20.668Z,99.99
2019-04-27T03:48:20.661Z,99.99
2019-04-27T03:49:35.115Z,99.99
2019-04-27T03:50:21.645Z,99.99
2019-04-27T03:51:20.691Z,99.99
2019-04-27T03:52:20.613Z,99.99
2019-04-27T03:53:23.237Z,99.99
2019-04-27T03:54:22.128Z,99.99
2019-04-27T03:55:20.577Z,99.99
2019-04-27T03:56:20.566Z,99.99
2019-04-27T03:57:20.617Z,99.99
2019-04-27T03:58:21.653Z,99.99
2019-04-27T03:59:20.539Z,99.99
2019-04-27T04:00:20.538Z,99.99
2019-04-27T04:01:20.515Z,99.99
2019-04-27T04:02:20.499Z,99.99
2019-04-27T04:03:20.587Z,99.99
2019-04-27T04:04:20.481Z,99.99
2019-04-27T04:05:20.479Z,99.99
2019-04-27T04:06:20.464Z,99.99
2019-04-27T04:07:20.449Z,99.99
2019-04-27T04:08:20.437Z,99.99
2019-04-27T04:09:20.496Z,99.99
2019-04-27T04:10:20.417Z,99.99
2019-04-27T04:11:20.404Z,99.99
2019-04-27T04:12:20.390Z,99.99
2019-04-27T04:13:22.627Z,99.99
2019-04-27T04:14:20.502Z,99.99
2019-04-27T04:15:20.429Z,99.99
2019-04-27T04:16:20.466Z,99.99
2019-04-27T04:18:45.792Z,99.99
2019-04-27T04:19:40.170Z,99.99
2019-04-27T04:20:30.745Z,99.99
2019-04-27T04:21:30.044Z,99.99
2019-04-27T04:22:30.259Z,99.99
2019-04-27T04:23:30.079Z,99.99
2019-04-27T04:24:31.787Z,99.99
2019-04-27T04:25:30.229Z,99.99
2019-04-27T04:26:32.872Z,99.99
2019-04-27T04:27:30.048Z,99.99
2019-04-27T04:28:29.742Z,99.99
2019-04-27T04:29:30.664Z,99.99
2019-04-27T04:30:30.458Z,99.99
2019-04-27T04:31:33.191Z,99.99
2019-04-27T04:32:29.947Z,99.99
2019-04-27T04:33:30.374Z,99.99
2019-04-27T04:34:29.912Z,99.99
2019-04-27T04:35:32.537Z,99.99
2019-04-27T04:36:30.197Z,99.99
2019-04-27T04:37:29.770Z,99.99
2019-04-27T04:38:30.412Z,99.99
2019-04-27T04:39:29.783Z,99.99
2019-04-27T04:40:30.690Z,99.99
2019-04-27T04:41:30.384Z,99.99
2019-04-27T04:42:30.055Z,99.99
2019-04-27T04:43:29.548Z,99.95
2019-04-27T04:44:30.227Z,99.99
2019-04-27T04:45:30.552Z,99.99
2019-04-27T04:46:29.856Z,99.54
2019-04-27T04:47:30.575Z,99.54
2019-04-27T04:48:30.251Z,99.99
2019-04-27T04:49:29.755Z,99.33
2019-04-27T04:50:30.436Z,99.43
2019-04-27T04:51:30.343Z,99.54
2019-04-27T04:52:29.563Z,99.49
2019-04-27T04:53:29.475Z,99.49
2019-04-27T04:54:29.971Z,99.54
2019-04-27T04:55:30.673Z,99.74
2019-04-27T04:56:29.362Z,99.18
2019-04-27T04:57:29.918Z,98.88
2019-04-27T04:58:29.498Z,99.13
2019-04-27T04:59:29.289Z,99.02
2019-04-27T05:00:29.931Z,98.88
2019-04-27T05:01:29.940Z,98.88
2019-04-27T05:02:29.436Z,98.46
2019-04-27T05:03:29.149Z,98.25
2019-04-27T05:04:29.267Z,98.30
2019-04-27T05:05:29.415Z,97.99
2019-04-27T05:06:29.374Z,98.20
2019-04-27T05:07:29.686Z,97.78
2019-04-27T05:08:29.280Z,97.58
2019-04-27T05:09:29.666Z,98.24
2019-04-27T05:10:31.178Z,98.03
2019-04-27T05:11:29.738Z,98.45
2019-04-27T05:12:29.051Z,98.35
2019-04-27T05:13:29.413Z,98.35
2019-04-27T05:14:29.095Z,98.24
2019-04-27T05:15:29.383Z,98.76
2019-04-27T05:16:29.070Z,98.41
2019-04-27T05:17:29.687Z,98.35
2019-04-27T05:18:29.423Z,98.55
2019-04-27T05:19:28.992Z,99.17
2019-04-27T05:20:29.461Z,98.55
2019-04-27T05:21:29.468Z,99.38
2019-04-27T05:22:29.598Z,99.17
2019-04-27T05:23:28.917Z,99.17
2019-04-27T05:24:29.365Z,98.82
2019-04-27T05:25:28.895Z,99.33
2019-04-27T05:26:29.497Z,99.74
2019-04-27T05:27:29.078Z,99.02
2019-04-27T05:28:29.858Z,99.02
2019-04-27T05:29:29.405Z,99.02
2019-04-27T05:30:28.837Z,99.23
2019-04-27T05:31:29.377Z,99.64
2019-04-27T05:32:29.225Z,99.18
2019-04-27T05:33:28.801Z,98.97
2019-04-27T05:34:29.464Z,98.97
2019-04-27T05:35:29.750Z,98.88
2019-04-27T05:36:29.641Z,98.46
2019-04-27T05:37:31.659Z,98.72
2019-04-27T05:38:29.463Z,97.74
2019-04-27T05:39:29.955Z,97.60
2019-04-27T05:40:30.954Z,97.60
2019-04-27T05:41:31.206Z,97.69
2019-04-27T05:42:29.758Z,98.11
2019-04-27T05:43:31.771Z,97.90
2019-04-27T05:44:28.723Z,97.60
2019-04-27T05:45:29.152Z,97.14
2019-04-27T05:46:29.703Z,96.42
2019-04-27T05:47:29.665Z,96.17
2019-04-27T05:48:30.673Z,95.71
2019-04-27T05:49:29.493Z,95.50
2019-04-27T05:50:37.676Z,94.68
2019-04-27T05:51:36.744Z,94.48
2019-04-27T05:52:29.945Z,94.43
2019-04-27T05:53:29.115Z,93.67
2019-04-27T05:54:29.430Z,93.52
2019-04-27T05:55:29.209Z,92.80
2019-04-27T05:56:28.937Z,91.84
2019-04-27T05:57:31.233Z,91.78
2019-04-27T05:58:28.994Z,91.67
2019-04-27T05:59:29.783Z,92.60
2019-04-27T06:00:29.311Z,92.74
2019-04-27T06:01:29.685Z,93.36
2019-04-27T06:02:30.226Z,93.32
2019-04-27T06:03:29.602Z,92.80
2019-04-27T06:04:29.121Z,92.66
2019-04-27T06:05:29.228Z,92.93
2019-04-27T06:06:29.514Z,91.59
2019-04-27T06:07:29.703Z,90.62
2019-04-27T06:08:29.503Z,89.95
2019-04-27T06:09:28.971Z,89.70
2019-04-27T06:10:29.665Z,90.07
2019-04-27T06:11:28.724Z,88.80
2019-04-27T06:12:29.678Z,88.62
2019-04-27T06:13:30.706Z,87.14
2019-04-27T06:14:29.199Z,85.77
2019-04-27T06:15:29.991Z,86.24
2019-04-27T06:16:29.527Z,86.20
2019-04-27T06:17:29.931Z,84.98
2019-04-27T06:18:29.451Z,84.47
2019-04-27T06:19:29.116Z,84.18
2019-04-27T06:20:28.664Z,82.14
2019-04-27T06:21:29.456Z,81.43
2019-04-27T06:22:29.273Z,81.80
2019-04-27T06:23:28.930Z,80.88
2019-04-27T06:24:29.781Z,79.82
2019-04-27T06:25:30.544Z,78.64
2019-04-27T06:26:30.068Z,80.16
2019-04-27T06:27:30.649Z,79.25
2019-04-27T06:28:29.028Z,78.80
2019-04-27T06:29:29.247Z,80.84
2019-04-27T06:30:29.191Z,80.09
2019-04-27T06:31:29.681Z,79.99
2019-04-27T06:32:29.585Z,81.41
2019-04-27T06:33:34.132Z,80.09
2019-04-27T06:34:30.974Z,78.46
2019-04-27T06:35:28.817Z,78.87
2019-04-27T06:36:28.762Z,80.16
2019-04-27T06:37:29.349Z,79.64
2019-04-27T06:38:29.304Z,79.03
2019-04-27T06:39:29.730Z,79.81
2019-04-27T06:40:29.070Z,78.76
2019-04-27T06:41:29.438Z,76.79
2019-04-27T06:42:29.688Z,77.09
2019-04-27T06:43:29.418Z,76.34
2019-04-27T06:44:29.328Z,75.73
2019-04-27T06:45:28.556Z,75.94
2019-04-27T06:46:28.834Z,76.04
2019-04-27T06:47:29.509Z,76.95
2019-04-27T06:48:29.528Z,75.84
2019-04-27T06:49:29.504Z,74.55
2019-04-27T06:50:29.499Z,75.53
2019-04-27T06:51:28.713Z,74.79
2019-04-27T06:52:29.188Z,74.14
2019-04-27T06:53:29.155Z,72.14
2019-04-27T06:54:28.826Z,74.28
2019-04-27T06:55:29.132Z,74.58
2019-04-27T06:56:28.766Z,73.46
2019-04-27T06:57:29.239Z,73.90
2019-04-27T06:58:29.251Z,71.16
2019-04-27T06:59:28.839Z,71.50
2019-04-27T07:00:28.899Z,71.33
2019-04-27T07:01:27.782Z,71.23
2019-04-27T07:02:29.097Z,71.97
2019-04-27T07:03:28.944Z,70.35
2019-04-27T07:04:29.377Z,71.23
2019-04-27T07:05:28.941Z,71.40
2019-04-27T07:06:28.579Z,71.30
2019-04-27T07:07:29.499Z,70.72
2019-04-27T07:08:28.635Z,69.27
2019-04-27T07:09:29.366Z,68.46
2019-04-27T07:10:28.586Z,69.00
2019-04-27T07:11:29.598Z,68.52
2019-04-27T07:12:28.803Z,71.20
2019-04-27T07:13:29.159Z,69.03
2019-04-27T07:14:29.324Z,69.95
2019-04-27T07:15:28.679Z,69.51
2019-04-27T07:16:29.509Z,69.31
2019-04-27T07:17:28.972Z,67.22
2019-04-27T07:18:28.587Z,68.10
2019-04-27T07:19:28.605Z,65.73
2019-04-27T07:20:30.307Z,65.47
2019-04-27T07:21:28.664Z,66.75
2019-04-27T07:22:27.549Z,64.59
2019-04-27T07:23:29.310Z,64.97
2019-04-27T07:24:29.162Z,63.22
2019-04-27T07:25:28.877Z,63.42
2019-04-27T07:26:27.496Z,65.17
2019-04-27T07:27:29.170Z,63.15
2019-04-27T07:28:28.640Z,64.87
2019-04-27T07:29:29.035Z,64.87
2019-04-27T07:30:28.836Z,64.70
2019-04-27T07:31:29.510Z,63.46
2019-04-27T07:32:29.134Z,62.21
2019-04-27T07:33:27.420Z,62.41
2019-04-27T07:34:28.605Z,60.57
2019-04-27T07:35:27.395Z,63.12
2019-04-27T07:36:28.992Z,64.23
2019-04-27T07:37:29.260Z,62.38
2019-04-27T07:38:29.265Z,62.76
2019-04-27T07:39:29.235Z,61.41
2019-04-27T07:40:30.117Z,62.73
2019-04-27T07:41:29.077Z,59.83
2019-04-27T07:42:30.263Z,61.04
2019-04-27T07:43:29.177Z,61.68
2019-04-27T07:44:27.290Z,61.85
2019-04-27T07:45:29.400Z,61.69
2019-04-27T07:46:29.885Z,60.88
2019-04-27T07:47:27.266Z,60.98
2019-04-27T07:48:28.559Z,60.48
2019-04-27T07:49:29.020Z,58.74
2019-04-27T07:50:28.976Z,57.17
2019-04-27T07:51:32.159Z,54.93
2019-04-27T07:52:28.686Z,56.54
2019-04-27T07:53:29.075Z,56.11
2019-04-27T07:54:28.468Z,56.44
2019-04-27T07:55:28.798Z,57.68
2019-04-27T07:56:29.046Z,59.22
2019-04-27T07:57:28.902Z,57.70
2019-04-27T07:58:27.140Z,58.03
2019-04-27T07:59:27.117Z,59.59
2019-04-27T08:00:28.936Z,58.29
2019-04-27T08:01:27.103Z,55.13
2019-04-27T08:02:28.984Z,54.77
2019-04-27T08:03:28.932Z,53.75
2019-04-27T08:04:28.691Z,53.17
2019-04-27T08:05:27.053Z,53.47
2019-04-27T08:06:28.994Z,53.75
2019-04-27T08:07:28.907Z,55.21
2019-04-27T08:08:28.602Z,57.22
2019-04-27T08:09:27.081Z,55.16
2019-04-27T08:10:26.996Z,55.66
2019-04-27T08:11:28.843Z,55.33
2019-04-27T08:12:28.771Z,53.59
2019-04-27T08:13:26.972Z,55.23
2019-04-27T08:14:28.525Z,53.62
2019-04-27T08:15:26.994Z,52.87
2019-04-27T08:16:28.872Z,51.76
2019-04-27T08:17:28.302Z,53.72
2019-04-27T08:18:26.915Z,52.49
2019-04-27T08:19:26.891Z,53.70
2019-04-27T08:20:26.879Z,51.04
2019-04-27T08:21:28.760Z,50.81
2019-04-27T08:22:26.932Z,52.04
2019-04-27T08:23:26.846Z,51.32
2019-04-27T08:24:26.834Z,50.51
2019-04-27T08:25:26.822Z,50.67
2019-04-27T08:26:28.640Z,51.54
2019-04-27T08:27:26.798Z,51.87
2019-04-27T08:28:28.685Z,53.75
2019-04-27T08:29:26.781Z,51.42
2019-04-27T08:30:26.763Z,51.14
2019-04-27T08:31:28.619Z,50.16
2019-04-27T08:32:26.742Z,50.72
2019-04-27T08:33:26.731Z,48.82
2019-04-27T08:34:26.935Z,50.14
2019-04-27T08:35:26.710Z,51.37
2019-04-27T08:36:26.695Z,48.64
2019-04-27T08:37:28.574Z,48.99
2019-04-27T08:38:26.672Z,48.97
2019-04-27T08:39:26.662Z,49.44
2019-04-27T08:40:26.718Z,52.04
2019-04-27T08:41:26.638Z,54.83
2019-04-27T08:42:26.630Z,56.51
2019-04-27T08:43:26.617Z,56.01
2019-04-27T08:44:26.769Z,56.19
2019-04-27T08:45:26.594Z,56.04
2019-04-27T08:46:28.449Z,57.28
2019-04-27T08:47:26.572Z,57.37
2019-04-27T08:48:34.678Z,57.28
2019-04-27T08:49:29.256Z,56.95
2019-04-27T08:50:26.536Z,55.71
2019-04-27T08:51:26.524Z,54.86
2019-04-27T08:52:26.581Z,55.63
2019-04-27T08:53:26.501Z,57.37
2019-04-27T08:54:26.489Z,56.41
2019-04-27T08:55:26.486Z,55.10
2019-04-27T08:56:26.466Z,52.64
2019-04-27T08:57:26.458Z,52.09
2019-04-27T08:58:28.490Z,50.69
2019-04-27T08:59:26.434Z,53.47
2019-04-27T09:00:26.427Z,53.07
2019-04-27T09:01:26.409Z,50.13
2019-04-27T09:02:38.906Z,51.01
2019-04-27T09:03:29.297Z,50.11
2019-04-27T09:04:26.376Z,51.62
2019-04-27T09:05:26.372Z,49.89
2019-04-27T09:06:26.427Z,52.42
2019-04-27T09:07:26.344Z,51.77
2019-04-27T09:08:26.347Z,50.49
2019-04-27T09:09:26.318Z,51.26
2019-04-27T09:10:26.307Z,52.49
2019-04-27T09:11:26.296Z,51.89
2019-04-27T09:12:26.352Z,49.24
2019-04-27T09:13:26.277Z,49.24
2019-04-27T09:14:26.263Z,47.64
2019-04-27T09:15:26.250Z,51.09
2019-04-27T09:16:26.242Z,52.92
2019-04-27T09:17:26.227Z,52.07
2019-04-27T09:18:26.426Z,53.37
2019-04-27T09:19:26.214Z,50.12
2019-04-27T09:20:26.196Z,47.27
2019-04-27T09:21:26.183Z,49.05
2019-04-27T09:22:26.172Z,48.17
2019-04-27T09:23:26.160Z,45.43
2019-04-27T09:24:26.216Z,46.16
2019-04-27T09:25:26.138Z,43.97
2019-04-27T09:26:26.125Z,47.05
2019-04-27T09:27:26.115Z,48.27
2019-04-27T09:28:26.105Z,49.07
2019-04-27T09:29:26.093Z,47.92
2019-04-27T09:30:26.153Z,50.37
2019-04-27T09:31:26.073Z,50.54
2019-04-27T09:32:26.061Z,48.54
2019-04-27T09:33:26.056Z,48.55
2019-04-27T09:34:26.154Z,47.42
2019-04-27T09:35:26.470Z,46.30
2019-04-27T09:36:26.155Z,43.45
2019-04-27T09:37:27.454Z,47.79
2019-04-27T09:38:26.560Z,47.71
2019-04-27T09:39:26.519Z,45.54
2019-04-27T09:40:26.753Z,44.02
2019-04-27T09:41:26.290Z,46.12
2019-04-27T09:42:26.828Z,46.06
2019-04-27T09:43:26.518Z,45.29
2019-04-27T09:44:26.654Z,46.41
2019-04-27T09:45:27.064Z,43.37
2019-04-27T09:46:26.073Z,43.51
2019-04-27T09:47:26.688Z,43.71
2019-04-27T09:48:26.118Z,43.93
2019-04-27T09:49:26.378Z,43.85
2019-04-27T09:50:28.236Z,45.79
2019-04-27T09:51:25.849Z,46.69
2019-04-27T09:52:28.298Z,45.62
2019-04-27T09:53:27.033Z,47.19
2019-04-27T09:54:27.219Z,45.67
2019-04-27T09:55:26.361Z,45.09
2019-04-27T09:56:26.154Z,46.77
2019-04-27T09:57:26.024Z,47.47
2019-04-27T09:58:25.876Z,47.86
2019-04-27T09:59:26.547Z,45.54
2019-04-27T10:00:27.624Z,45.96
2019-04-27T10:01:26.513Z,47.50
2019-04-27T10:02:27.030Z,49.71
2019-04-27T10:03:26.643Z,47.13
2019-04-27T10:04:26.340Z,46.53
2019-04-27T10:05:26.305Z,45.18
2019-04-27T10:06:29.755Z,45.81
2019-04-27T10:07:26.800Z,42.85
2019-04-27T10:08:26.187Z,45.23
2019-04-27T10:09:26.339Z,43.55
2019-04-27T10:10:26.755Z,43.62
2019-04-27T10:11:26.498Z,45.29
2019-04-27T10:12:26.065Z,44.45
2019-04-27T10:13:25.719Z,41.69
2019-04-27T10:14:26.528Z,42.97
2019-04-27T10:15:26.689Z,41.67
2019-04-27T10:16:25.755Z,41.97
2019-04-27T10:17:25.593Z,43.99
2019-04-27T10:18:26.596Z,43.07
2019-04-27T10:19:30.707Z,43.75
2019-04-27T10:20:26.533Z,43.67
2019-04-27T10:21:26.412Z,43.82
2019-04-27T10:22:39.533Z,44.49
2019-04-27T10:23:26.490Z,43.99
2019-04-27T10:24:25.808Z,43.77
2019-04-27T10:25:25.466Z,46.51
2019-04-27T10:26:25.893Z,47.70
2019-04-27T10:27:25.949Z,48.27
2019-04-27T10:28:25.500Z,50.33
2019-04-27T10:29:26.811Z,50.76
2019-04-27T10:30:25.823Z,51.04
2019-04-27T10:31:25.399Z,50.66
2019-04-27T10:32:26.065Z,50.08
2019-04-27T10:33:25.822Z,48.07
2019-04-27T10:34:25.432Z,45.77
2019-04-27T10:35:26.026Z,44.20
2019-04-27T10:36:26.883Z,43.62
2019-04-27T10:37:25.330Z,45.89
2019-04-27T10:38:25.958Z,44.02
2019-04-27T10:39:25.710Z,43.80
2019-04-27T10:40:26.372Z,42.07
2019-04-27T10:41:25.959Z,43.59
2019-04-27T10:42:27.088Z,41.66
2019-04-27T10:43:25.828Z,40.81
2019-04-27T10:44:26.661Z,39.82
2019-04-27T10:45:25.255Z,40.28
2019-04-27T10:46:25.835Z,40.36
2019-04-27T10:47:26.039Z,41.06
2019-04-27T10:48:26.533Z,40.08
2019-04-27T10:49:25.199Z,39.46
2019-04-27T10:50:26.592Z,37.97
2019-04-27T10:51:26.145Z,41.08
2019-04-27T10:52:25.228Z,43.98
2019-04-27T10:53:26.771Z,43.62
2019-04-27T10:54:25.144Z,43.93
2019-04-27T10:55:26.190Z,41.77
2019-04-27T10:56:25.482Z,44.01
2019-04-27T10:57:25.803Z,41.97
2019-04-27T10:58:25.434Z,39.84
2019-04-27T10:59:25.083Z,41.24
2019-04-27T11:00:25.697Z,41.61
2019-04-27T11:01:25.752Z,39.62
2019-04-27T11:02:25.051Z,39.34
2019-04-27T11:03:25.595Z,41.03
2019-04-27T11:04:26.045Z,40.88
2019-04-27T11:05:26.241Z,40.28
2019-04-27T11:06:26.188Z,40.26
2019-04-27T11:07:25.971Z,38.46
2019-04-27T11:08:24.984Z,38.60
2019-04-27T11:09:25.732Z,41.25
2019-04-27T11:10:25.985Z,41.09
2019-04-27T11:11:25.892Z,42.60
2019-04-27T11:12:24.945Z,41.53
2019-04-27T11:13:25.762Z,43.01
2019-04-27T11:14:26.168Z,42.90
2019-04-27T11:15:26.383Z,43.65
2019-04-27T11:16:24.952Z,41.55
2019-04-27T11:17:26.644Z,40.28
2019-04-27T11:18:25.782Z,38.49
2019-04-27T11:19:26.656Z,38.66
2019-04-27T11:20:27.570Z,39.07
2019-04-27T11:21:26.184Z,39.69
2019-04-27T11:22:26.046Z,39.95
2019-04-27T11:23:26.094Z,40.91
2019-04-27T11:24:24.812Z,40.72
2019-04-27T11:25:26.394Z,38.54
2019-04-27T11:26:26.323Z,38.27
2019-04-27T11:27:24.842Z,36.47
2019-04-27T11:28:25.879Z,37.65
2019-04-27T11:29:25.953Z,37.12
2019-04-27T11:30:24.744Z,35.86
2019-04-27T11:31:26.120Z,39.82
2019-04-27T11:32:24.730Z,37.90
2019-04-27T11:33:26.353Z,37.79
2019-04-27T11:34:24.701Z,38.25
2019-04-27T11:35:25.766Z,36.12
2019-04-27T11:36:25.601Z,37.21
2019-04-27T11:37:24.665Z,36.43
2019-04-27T11:38:26.503Z,36.43
2019-04-27T11:39:26.030Z,37.70
2019-04-27T11:40:24.633Z,36.59
2019-04-27T11:41:26.270Z,34.88
2019-04-27T11:42:24.612Z,35.34
2019-04-27T11:43:26.104Z,35.41
2019-04-27T11:44:25.757Z,37.08
2019-04-27T11:45:26.466Z,36.96
2019-04-27T11:46:24.574Z,37.10
2019-04-27T11:47:24.558Z,36.94
2019-04-27T11:48:26.213Z,36.31
2019-04-27T11:49:25.812Z,35.38
2019-04-27T11:50:25.655Z,35.26
2019-04-27T11:51:26.480Z,34.25
2019-04-27T11:52:24.502Z,35.33
2019-04-27T11:53:26.254Z,34.52
2019-04-27T11:54:25.577Z,35.79
2019-04-27T11:55:24.470Z,35.01
2019-04-27T11:56:24.457Z,34.31
2019-04-27T11:57:24.516Z,35.01
2019-04-27T11:58:24.445Z,34.80
2019-04-27T11:59:24.425Z,33.69
2019-04-27T12:00:24.416Z,33.60
2019-04-27T12:01:24.406Z,34.99
2019-04-27T12:02:25.780Z,33.78
2019-04-27T12:03:24.598Z,32.99
2019-04-27T12:04:26.190Z,34.98
2019-04-27T12:05:26.025Z,36.51
2019-04-27T12:06:25.857Z,35.88
2019-04-27T12:07:24.335Z,35.47
2019-04-27T12:08:24.324Z,33.98
2019-04-27T12:09:24.526Z,34.63
2019-04-27T12:10:26.115Z,33.92
2019-04-27T12:11:26.020Z,33.60
2019-04-27T12:12:25.816Z,34.58
2019-04-27T12:13:25.828Z,34.61
2019-04-27T12:14:24.261Z,33.58
2019-04-27T12:15:26.065Z,37.66
2019-04-27T12:16:25.830Z,40.15
2019-04-27T12:17:26.710Z,40.75
2019-04-27T12:18:24.215Z,41.74
2019-04-27T12:19:24.205Z,40.49
2019-04-27T12:20:25.814Z,37.66
2019-04-27T12:21:24.249Z,36.18
2019-04-27T12:22:24.171Z,34.99
2019-04-27T12:23:33.780Z,38.28
2019-04-27T12:24:26.750Z,37.88
2019-04-27T12:25:24.138Z,36.26
2019-04-27T12:26:25.926Z,35.16
2019-04-27T12:27:25.690Z,36.86
2019-04-27T12:28:25.606Z,37.59
2019-04-27T12:29:24.099Z,36.38
2019-04-27T12:30:26.057Z,37.11
2019-04-27T12:31:25.704Z,39.53
2019-04-27T12:32:25.633Z,38.63
2019-04-27T12:33:25.610Z,37.96
2019-04-27T12:34:25.647Z,38.81
2019-04-27T12:35:25.694Z,38.95
2019-04-27T12:36:25.708Z,40.07
2019-04-27T12:37:24.003Z,39.81
2019-04-27T12:38:23.995Z,38.01
2019-04-27T12:39:24.047Z,38.33
2019-04-27T12:40:23.971Z,39.69
2019-04-27T12:41:23.958Z,42.54
2019-04-27T12:42:23.948Z,42.03
2019-04-27T12:43:23.936Z,42.78
2019-04-27T12:44:23.933Z,43.38
2019-04-27T12:45:23.987Z,43.92
2019-04-27T12:46:23.903Z,44.77
2019-04-27T12:47:23.894Z,45.87
2019-04-27T12:48:23.881Z,45.82
2019-04-27T12:49:23.871Z,46.65
2019-04-27T12:50:23.857Z,46.95
2019-04-27T12:51:23.917Z,46.17
2019-04-27T12:52:23.834Z,46.37
2019-04-27T12:53:23.825Z,46.17